Current Weather

Burlington Muni

Burlington, Wisconsin (KBUU)

Report from: Wednesday, September 28, 2022 4:35 AM CDT
Current time: Wednesday, September 28, 2022 5:02 AM CDT

Nearby weather
Weather history
Weather forecast

Temperature5.6°C (42.1°F)
Wind chill3.6°C (38.4°F)
Dew point3.9°C (39.0°F)
Winds 5 kts (2.6 m/s, 5.8 mph) North (350°)
Visibility10 mi. (16.1 km)
Clouds Scattered clouds 10,000 ft. (3,048 m)
Altimeter30.38 in.Hg (1029 mB)
Relative humidity89 %
Density altitude-1,542 ft. (-470 m)
Remarks Fully automated report
Automated weather observing station with precipitation discriminator
Present weather sensor not operating
Flight conditions Visual Meteorological Conditions
Raw dataKBUU 280935Z AUTO 35005KT 10SM SCT100 06/04 A3038 RMK AO2 T00560039 PWINO
An error has occurred. This application may no longer respond until reloaded. Reload 🗙